Startpagina
METAR-TAF:

METAR-TAF

Vliegvelden :

Internationale Luchthaven van Peking

Peking, China

breedte: 39-56N, lengte: 116-17E, hoogte: 55 m

Actueel weer

Dit bericht is 20 minuten geleden gemaakt, om 05:00 UTC
Wind 2 kt uit variabele richting
Temperatuur 23°C
Vochtigheid 47%
Druk 1013 hPa
Zicht 10 km of meer
geen wolken onder 1500 m en geen cumulonimbus

METAR: ZBAA 190500Z VRB01MPS CAVOK 23/11 Q1013 NOSIG

Tijdstip: 13:20 (05:20 UTC)

Verwachting

Dit bericht is 8 uur en het 0 minuten geleden gemaakt, om 21:20 UTC
Verwachting geldig van 19 om 00 UTC tot 19 om 24 UTC
Wind 8 kt uit het zuidzuidoosten
Zicht 10 km of meer
geen wolken onder 1500 m en geen cumulonimbus

TAF: ZBAA 182120Z 1900/1924 16004MPS CAVOK TX25/1907Z TN14/1921Z

Waarnemingen en weersverwachtingen van meer dan 4000 vliegvelden (METAR en TAF).

De beschikbare stations zijn de gele en rode punten op de kaart.

Ga met uw muis naar het station om de naam te zien.

Klik dan om waarnemingen en weersverwachtingen te zien.

kaart wijzigen: klik op de groene knoppen met een zwart kruis om in te zoomen, op de groene knop met een streepje om uit te zoomen of op de groene pijlen voor aangrenzende kaarten.


METAR-TAF: